createdAt,value
2023-05-05T00:01:08.425Z,99412.53
2023-05-05T00:03:35.071Z,99416.34
2023-05-05T00:06:02.034Z,99405.16
2023-05-05T00:08:28.645Z,99410.91
2023-05-05T00:10:55.158Z,99413.13
2023-05-05T00:13:21.939Z,99417.09
2023-05-05T00:15:50.648Z,99426.00
2023-05-05T00:18:18.459Z,99411.63
2023-05-05T00:20:45.636Z,99399.41
2023-05-05T00:23:12.180Z,99406.84
2023-05-05T00:25:38.612Z,99400.31
2023-05-05T00:28:05.369Z,99385.81
2023-05-05T00:30:31.756Z,99379.34
2023-05-05T00:32:58.330Z,99391.53
2023-05-05T00:35:24.770Z,99412.47
2023-05-05T00:37:51.084Z,99395.06
2023-05-05T00:40:17.509Z,99385.53
2023-05-05T00:42:46.070Z,99389.16
2023-05-05T00:45:14.195Z,99379.03
2023-05-05T00:47:47.590Z,99385.47
2023-05-05T00:50:22.336Z,99394.88
2023-05-05T00:52:49.435Z,99393.25
2023-05-05T00:55:16.070Z,99380.84
2023-05-05T00:57:43.244Z,99385.38
2023-05-05T01:00:10.409Z,99376.88
2023-05-05T01:02:37.031Z,99374.06
2023-05-05T01:05:03.942Z,99360.69
2023-05-05T01:07:47.920Z,99379.66
2023-05-05T01:10:25.110Z,99377.38
2023-05-05T01:12:57.108Z,99369.69
2023-05-05T01:15:37.658Z,99364.63
2023-05-05T01:18:29.462Z,99376.13
2023-05-05T01:21:06.961Z,99352.38
2023-05-05T01:23:54.902Z,99367.69
2023-05-05T01:26:45.864Z,99372.75
2023-05-05T01:29:50.629Z,99374.69
2023-05-05T01:32:25.478Z,99371.50
2023-05-05T01:35:29.320Z,99356.28
2023-05-05T01:38:06.017Z,99360.59
2023-05-05T01:40:40.910Z,99373.63
2023-05-05T01:43:10.242Z,99366.50
2023-05-05T01:45:39.860Z,99373.03
2023-05-05T01:48:08.077Z,99361.28
2023-05-05T01:50:35.787Z,99373.28
2023-05-05T01:53:04.665Z,99379.97
2023-05-05T01:55:33.357Z,99374.16
2023-05-05T01:58:02.181Z,99364.66
2023-05-05T02:00:28.954Z,99380.31
2023-05-05T02:02:56.603Z,99374.81
2023-05-05T02:05:24.656Z,99365.41
2023-05-05T02:07:53.512Z,99366.94
2023-05-05T02:10:20.268Z,99361.19
2023-05-05T02:12:47.679Z,99368.03
2023-05-05T02:15:16.295Z,99359.25
2023-05-05T02:17:43.590Z,99358.97
2023-05-05T02:20:14.665Z,99353.06
2023-05-05T02:22:41.265Z,99366.84
2023-05-05T02:25:09.216Z,99361.78
2023-05-05T02:27:37.195Z,99360.06
2023-05-05T02:30:08.780Z,99363.66
2023-05-05T02:32:40.216Z,99362.13
2023-05-05T02:35:14.935Z,99357.88
2023-05-05T02:37:48.522Z,99358.88
2023-05-05T02:40:22.771Z,99347.91
2023-05-05T02:42:51.339Z,99343.56
2023-05-05T02:45:21.469Z,99347.91
2023-05-05T02:47:47.955Z,99334.72
2023-05-05T02:50:14.841Z,99344.34
2023-05-05T02:52:41.788Z,99333.19
2023-05-05T02:55:08.636Z,99351.22
2023-05-05T02:57:42.528Z,99334.38
2023-05-05T03:00:23.163Z,99344.59
2023-05-05T03:03:18.521Z,99343.94
2023-05-05T03:05:53.803Z,99332.00
2023-05-05T03:08:50.497Z,99344.69
2023-05-05T03:11:26.163Z,99342.06
2023-05-05T03:13:59.396Z,99346.31
2023-05-05T03:16:27.825Z,99338.78
2023-05-05T03:18:57.020Z,99331.00
2023-05-05T03:21:23.673Z,99329.22
2023-05-05T03:23:50.344Z,99340.22
2023-05-05T03:26:17.673Z,99339.34
2023-05-05T03:28:44.174Z,99349.69
2023-05-05T03:31:11.613Z,99333.63
2023-05-05T03:33:37.929Z,99341.22
2023-05-05T03:36:04.536Z,99335.25
2023-05-05T03:38:30.832Z,99328.44
2023-05-05T03:40:57.349Z,99325.50
2023-05-05T03:43:23.635Z,99326.00
2023-05-05T03:45:50.038Z,99325.25
2023-05-05T03:48:16.420Z,99328.44
2023-05-05T03:50:45.309Z,99333.78
2023-05-05T03:53:11.755Z,99318.81
2023-05-05T03:55:38.113Z,99329.03
2023-05-05T03:58:04.408Z,99341.97
2023-05-05T04:00:30.782Z,99316.53
2023-05-05T04:02:57.509Z,99304.59
2023-05-05T04:05:23.937Z,99321.34
2023-05-05T04:07:50.346Z,99310.69
2023-05-05T04:10:16.859Z,99323.88
2023-05-05T04:12:43.570Z,99330.59
2023-05-05T04:15:10.370Z,99322.09
2023-05-05T04:17:36.661Z,99315.16
2023-05-05T04:20:03.476Z,99327.34
2023-05-05T04:22:29.804Z,99332.59
2023-05-05T04:24:56.176Z,99334.63
2023-05-05T04:27:22.565Z,99342.75
2023-05-05T04:29:48.934Z,99338.88
2023-05-05T04:32:15.379Z,99338.78
2023-05-05T04:34:41.799Z,99345.13
2023-05-05T04:37:08.257Z,99338.34
2023-05-05T04:39:35.094Z,99347.41
2023-05-05T04:42:01.414Z,99332.41
2023-05-05T04:44:27.792Z,99323.81
2023-05-05T04:46:54.343Z,99338.13
2023-05-05T04:49:20.919Z,99320.00
2023-05-05T04:51:47.385Z,99341.06
2023-05-05T04:54:13.759Z,99327.38
2023-05-05T04:56:40.314Z,99338.19
2023-05-05T04:59:06.660Z,99353.16
2023-05-05T05:01:33.152Z,99353.25
2023-05-05T05:03:59.728Z,99342.00
2023-05-05T05:06:26.044Z,99346.97
2023-05-05T05:08:53.086Z,99362.78
2023-05-05T05:11:19.480Z,99345.09
2023-05-05T05:13:45.820Z,99340.91
2023-05-05T05:16:12.311Z,99357.28
2023-05-05T05:18:38.678Z,99358.19
2023-05-05T05:21:05.197Z,99360.56
2023-05-05T05:23:31.628Z,99359.38
2023-05-05T05:25:58.148Z,99352.72
2023-05-05T05:28:24.545Z,99361.38
2023-05-05T05:30:51.105Z,99350.00
2023-05-05T05:33:17.431Z,99354.38
2023-05-05T05:35:43.799Z,99350.63
2023-05-05T05:38:10.944Z,99354.97
2023-05-05T05:40:37.762Z,99340.06
2023-05-05T05:43:04.094Z,99342.31
2023-05-05T05:45:30.598Z,99331.53
2023-05-05T05:47:57.114Z,99338.97
2023-05-05T05:50:23.532Z,99349.75
2023-05-05T05:52:50.066Z,99370.13
2023-05-05T05:55:16.535Z,99353.59
2023-05-05T05:57:43.223Z,99358.03
2023-05-05T06:00:10.197Z,99369.22
2023-05-05T06:02:36.820Z,99360.22
2023-05-05T06:05:04.020Z,99371.91
2023-05-05T06:07:30.526Z,99361.69
2023-05-05T06:09:56.862Z,99347.53
2023-05-05T06:12:23.361Z,99357.09
2023-05-05T06:14:49.652Z,99347.84
2023-05-05T06:17:16.077Z,99351.16
2023-05-05T06:19:42.610Z,99341.06
2023-05-05T06:22:09.452Z,99334.53
2023-05-05T06:24:35.956Z,99335.31
2023-05-05T06:27:02.309Z,99319.91
2023-05-05T06:29:28.882Z,99352.22
2023-05-05T06:31:55.822Z,99358.97
2023-05-05T06:34:22.224Z,99344.56
2023-05-05T06:36:48.644Z,99353.75
2023-05-05T06:39:16.199Z,99344.78
2023-05-05T06:41:42.658Z,99342.84
2023-05-05T06:44:08.979Z,99315.88
2023-05-05T06:46:35.917Z,99349.06
2023-05-05T06:49:02.258Z,99332.25
2023-05-05T06:51:28.948Z,99339.09
2023-05-05T06:53:55.309Z,99329.28
2023-05-05T06:56:21.880Z,99325.13
2023-05-05T06:58:48.531Z,99323.13
2023-05-05T07:01:14.856Z,99333.50
2023-05-05T07:03:42.683Z,99330.53
2023-05-05T07:06:09.134Z,99340.63
2023-05-05T07:08:35.785Z,99340.16
2023-05-05T07:11:02.097Z,99340.06
2023-05-05T07:13:28.797Z,99326.25
2023-05-05T07:15:57.403Z,99309.97
2023-05-05T07:18:23.727Z,99320.19
2023-05-05T07:20:50.409Z,99313.09
2023-05-05T07:23:16.767Z,99310.22
2023-05-05T07:25:43.131Z,99312.63
2023-05-05T07:28:09.924Z,99310.81
2023-05-05T07:30:36.252Z,99311.38
2023-05-05T07:33:02.934Z,99308.31
2023-05-05T07:35:29.868Z,99297.09
2023-05-05T07:37:56.311Z,99292.84
2023-05-05T07:40:23.353Z,99305.66
2023-05-05T07:42:49.746Z,99291.56
2023-05-05T07:45:16.278Z,99295.72
2023-05-05T07:47:42.982Z,99299.72
2023-05-05T07:50:10.062Z,99290.63
2023-05-05T07:52:45.387Z,99289.19
2023-05-05T07:55:14.658Z,99281.75
2023-05-05T07:57:41.272Z,99286.19
2023-05-05T08:00:08.282Z,99287.94
2023-05-05T08:02:35.021Z,99294.41
2023-05-05T08:05:01.743Z,99301.75
2023-05-05T08:07:31.158Z,99290.25
2023-05-05T08:09:57.464Z,99288.16
2023-05-05T08:12:23.891Z,99277.22
2023-05-05T08:14:51.334Z,99277.56
2023-05-05T08:17:18.483Z,99280.53
2023-05-05T08:19:45.171Z,99277.44
2023-05-05T08:22:12.319Z,99289.66
2023-05-05T08:24:38.676Z,99290.34
2023-05-05T08:27:04.977Z,99284.78
2023-05-05T08:29:31.385Z,99264.59
2023-05-05T08:31:57.692Z,99280.03
2023-05-05T08:34:24.492Z,99282.84
2023-05-05T08:36:51.194Z,99281.56
2023-05-05T08:39:18.107Z,99291.38
2023-05-05T08:41:44.862Z,99279.66
2023-05-05T08:44:11.294Z,99287.19
2023-05-05T08:46:39.757Z,99280.19
2023-05-05T08:49:13.831Z,99286.72
2023-05-05T08:51:43.303Z,99289.97
2023-05-05T08:54:17.740Z,99283.03
2023-05-05T08:56:46.932Z,99277.50
2023-05-05T08:59:14.797Z,99280.88
2023-05-05T09:01:42.172Z,99276.94
2023-05-05T09:04:09.449Z,99270.75
2023-05-05T09:06:36.108Z,99266.78
2023-05-05T09:09:02.881Z,99272.81
2023-05-05T09:11:29.572Z,99266.16
2023-05-05T09:13:57.057Z,99265.50
2023-05-05T09:16:23.386Z,99264.47
2023-05-05T09:18:49.747Z,99273.75
2023-05-05T09:21:23.460Z,99277.72
2023-05-05T09:24:09.640Z,99278.66
2023-05-05T09:26:42.451Z,99282.59
2023-05-05T09:29:09.229Z,99280.13
2023-05-05T09:31:37.003Z,99253.44
2023-05-05T09:34:15.386Z,99288.44
2023-05-05T09:36:46.494Z,99270.88
2023-05-05T09:39:20.617Z,99271.56
2023-05-05T09:41:47.068Z,99266.88
2023-05-05T09:44:14.028Z,99275.72
2023-05-05T09:46:51.176Z,99267.31
2023-05-05T09:49:22.234Z,99268.13
2023-05-05T09:51:48.847Z,99261.13
2023-05-05T09:54:22.308Z,99278.16
2023-05-05T09:56:48.814Z,99280.13
2023-05-05T09:59:16.849Z,99280.06
2023-05-05T10:01:43.291Z,99268.63
2023-05-05T10:04:23.710Z,99269.66
2023-05-05T10:06:50.217Z,99271.47
2023-05-05T10:09:16.911Z,99267.66
2023-05-05T10:11:45.247Z,99271.81
2023-05-05T10:14:15.489Z,99268.34
2023-05-05T10:16:50.412Z,99274.00
2023-05-05T10:19:19.552Z,99255.78
2023-05-05T10:21:59.315Z,99253.25
2023-05-05T10:24:37.512Z,99246.72
2023-05-05T10:27:12.688Z,99244.53
2023-05-05T10:30:08.447Z,99248.94
2023-05-05T10:32:57.302Z,99239.78
2023-05-05T10:35:35.338Z,99229.94
2023-05-05T10:38:03.578Z,99214.16
2023-05-05T10:40:30.842Z,99215.50
2023-05-05T10:42:58.305Z,99201.81
2023-05-05T10:45:24.982Z,99206.63
2023-05-05T10:47:52.935Z,99204.53
2023-05-05T10:50:39.064Z,99212.25
2023-05-05T10:53:15.547Z,99213.25
2023-05-05T10:55:49.858Z,99203.63
2023-05-05T10:58:36.594Z,99208.41
2023-05-05T11:01:08.692Z,99208.22
2023-05-05T11:03:36.703Z,99196.34
2023-05-05T11:06:06.014Z,99208.78
2023-05-05T11:08:33.078Z,99207.22
2023-05-05T11:11:00.051Z,99210.09
2023-05-05T11:13:27.025Z,99204.13
2023-05-05T11:15:56.015Z,99197.00
2023-05-05T11:18:39.967Z,99196.03
2023-05-05T11:21:14.506Z,99203.09
2023-05-05T11:23:46.715Z,99197.44
2023-05-05T11:26:14.539Z,99180.25
2023-05-05T11:28:59.108Z,99181.69
2023-05-05T11:31:25.568Z,99190.75
2023-05-05T11:33:52.400Z,99169.91
2023-05-05T11:36:20.316Z,99186.59
2023-05-05T11:39:06.653Z,99183.81
2023-05-05T11:41:32.898Z,99181.97
2023-05-05T11:44:13.429Z,99173.59
2023-05-05T11:47:02.732Z,99185.56
2023-05-05T11:49:32.234Z,99182.78
2023-05-05T11:52:01.475Z,99180.66
2023-05-05T11:54:29.180Z,99179.53
2023-05-05T11:56:58.347Z,99171.84
2023-05-05T11:59:25.170Z,99158.56
2023-05-05T12:01:52.299Z,99162.25
2023-05-05T12:04:19.762Z,99155.69
2023-05-05T12:06:46.615Z,99158.44
2023-05-05T12:09:21.469Z,99161.47
2023-05-05T12:11:58.425Z,99145.13
2023-05-05T12:14:25.455Z,99145.13
2023-05-05T12:17:07.517Z,99152.97
2023-05-05T12:19:35.612Z,99146.75
2023-05-05T12:22:03.516Z,99152.53
2023-05-05T12:24:30.272Z,99131.53
2023-05-05T12:27:09.914Z,99143.00
2023-05-05T12:29:36.483Z,99142.09
2023-05-05T12:32:04.268Z,99136.34
2023-05-05T12:34:31.927Z,99138.78
2023-05-05T12:36:58.434Z,99144.50
2023-05-05T12:39:35.311Z,99142.91
2023-05-05T12:42:03.350Z,99136.38
2023-05-05T12:44:40.108Z,99130.06
2023-05-05T12:47:07.648Z,99132.84
2023-05-05T12:49:51.196Z,99138.66
2023-05-05T12:52:21.250Z,99130.50
2023-05-05T12:54:57.672Z,99136.59
2023-05-05T12:57:25.753Z,99143.19
2023-05-05T12:59:53.487Z,99132.47
2023-05-05T13:02:20.887Z,99127.28
2023-05-05T13:04:52.229Z,99126.47
2023-05-05T13:07:20.725Z,99139.69
2023-05-05T13:09:48.903Z,99128.72
2023-05-05T13:12:18.655Z,99132.31
2023-05-05T13:14:45.650Z,99129.34
2023-05-05T13:17:13.026Z,99138.09
2023-05-05T13:19:40.233Z,99124.38
2023-05-05T13:22:06.743Z,99118.38
2023-05-05T13:24:46.574Z,99105.94
2023-05-05T13:27:17.676Z,99105.72
2023-05-05T13:29:44.043Z,99095.75
2023-05-05T13:32:10.346Z,99085.78
2023-05-05T13:34:36.760Z,99081.03
2023-05-05T13:37:03.166Z,99068.56
2023-05-05T13:39:29.501Z,99071.78
2023-05-05T13:41:55.841Z,99068.56
2023-05-05T13:44:22.214Z,99065.13
2023-05-05T13:46:48.697Z,99057.75
2023-05-05T13:49:15.706Z,99054.34
2023-05-05T13:51:42.373Z,99055.19
2023-05-05T13:54:08.900Z,99049.69
2023-05-05T13:56:35.530Z,99047.59
2023-05-05T13:59:01.836Z,99060.78
2023-05-05T14:01:28.516Z,99059.41
2023-05-05T14:03:57.285Z,99067.81
2023-05-05T14:06:24.734Z,99059.81
2023-05-05T14:08:51.207Z,99065.78
2023-05-05T14:11:17.575Z,99070.44
2023-05-05T14:13:44.009Z,99087.25
2023-05-05T14:16:11.444Z,99088.69
2023-05-05T14:18:37.754Z,99102.97
2023-05-05T14:21:04.167Z,99086.22
2023-05-05T14:23:30.792Z,99083.50
2023-05-05T14:25:57.362Z,99081.41
2023-05-05T14:28:23.654Z,99086.53
2023-05-05T14:30:49.955Z,99074.16
2023-05-05T14:33:16.389Z,99081.41
2023-05-05T14:35:42.838Z,99077.25
2023-05-05T14:38:09.165Z,99068.56
2023-05-05T14:40:35.552Z,99094.59
2023-05-05T14:43:01.959Z,99095.13
2023-05-05T14:45:28.276Z,99092.50
2023-05-05T14:47:55.107Z,99071.81
2023-05-05T14:50:21.527Z,99080.53
2023-05-05T14:52:47.824Z,99102.50
2023-05-05T14:55:14.226Z,99080.81
2023-05-05T14:57:40.704Z,99090.19
2023-05-05T15:00:09.352Z,99101.91
2023-05-05T15:02:35.727Z,99089.88
2023-05-05T15:05:02.192Z,99093.19
2023-05-05T15:07:28.556Z,99113.47
2023-05-05T15:09:55.447Z,99135.53
2023-05-05T15:12:22.465Z,99128.63
2023-05-05T15:14:49.030Z,99131.81
2023-05-05T15:17:15.398Z,99124.91
2023-05-05T15:19:42.347Z,99120.59
2023-05-05T15:22:08.713Z,99123.91
2023-05-05T15:24:35.135Z,99121.00
2023-05-05T15:27:01.549Z,99118.97
2023-05-05T15:29:28.018Z,99110.09
2023-05-05T15:31:54.399Z,99114.72
2023-05-05T15:34:20.720Z,99116.63
2023-05-05T15:36:47.122Z,99123.59
2023-05-05T15:39:13.441Z,99124.50
2023-05-05T15:41:39.962Z,99126.78
2023-05-05T15:44:06.415Z,99137.94
2023-05-05T15:46:32.797Z,99132.72
2023-05-05T15:48:59.243Z,99128.91
2023-05-05T15:51:25.683Z,99131.41
2023-05-05T15:53:52.611Z,99121.88
2023-05-05T15:56:19.419Z,99102.47
2023-05-05T15:58:46.023Z,99122.56
2023-05-05T16:01:12.394Z,99125.94
2023-05-05T16:03:38.960Z,99125.06
2023-05-05T16:06:05.612Z,99128.28
2023-05-05T16:08:32.234Z,99126.88
2023-05-05T16:10:58.529Z,99127.84
2023-05-05T16:13:24.923Z,99121.06
2023-05-05T16:15:51.285Z,99121.72
2023-05-05T16:18:17.865Z,99115.38
2023-05-05T16:20:44.353Z,99121.06
2023-05-05T16:23:10.671Z,99113.91
2023-05-05T16:25:37.342Z,99110.41
2023-05-05T16:28:03.992Z,99101.94
2023-05-05T16:30:30.441Z,99090.69
2023-05-05T16:32:56.833Z,99095.06
2023-05-05T16:35:23.360Z,99087.13
2023-05-05T16:37:49.920Z,99090.16
2023-05-05T16:40:16.259Z,99087.34
2023-05-05T16:42:44.497Z,99100.88
2023-05-05T16:45:11.538Z,99089.84
2023-05-05T16:47:38.287Z,99084.25
2023-05-05T16:50:05.275Z,99076.06
2023-05-05T16:52:31.580Z,99084.84
2023-05-05T16:54:57.967Z,99065.88
2023-05-05T16:57:24.552Z,99074.19
2023-05-05T16:59:51.123Z,99097.19
2023-05-05T17:02:17.609Z,99092.00
2023-05-05T17:04:43.926Z,99099.09
2023-05-05T17:07:10.445Z,99086.06
2023-05-05T17:09:36.800Z,99091.00
2023-05-05T17:12:03.387Z,99099.09
2023-05-05T17:14:30.346Z,99103.03
2023-05-05T17:16:56.724Z,99098.63
2023-05-05T17:19:23.106Z,99099.25
2023-05-05T17:21:49.514Z,99104.34
2023-05-05T17:24:16.582Z,99109.13
2023-05-05T17:26:43.025Z,99120.53
2023-05-05T17:29:10.948Z,99140.16
2023-05-05T17:31:39.036Z,99159.25
2023-05-05T17:34:05.420Z,99175.63
2023-05-05T17:36:31.754Z,99189.31
2023-05-05T17:38:58.046Z,99190.81
2023-05-05T17:41:24.580Z,99198.53
2023-05-05T17:43:51.303Z,99203.06
2023-05-05T17:46:17.751Z,99210.34
2023-05-05T17:48:44.230Z,99207.72
2023-05-05T17:51:10.562Z,99215.03
2023-05-05T17:53:36.956Z,99213.50
2023-05-05T17:56:03.355Z,99205.84
2023-05-05T17:58:29.767Z,99201.09
2023-05-05T18:00:56.101Z,99203.22
2023-05-05T18:03:22.775Z,99198.19
2023-05-05T18:05:49.199Z,99200.00
2023-05-05T18:08:15.619Z,99198.91
2023-05-05T18:10:42.527Z,99199.44
2023-05-05T18:13:09.109Z,99192.03
2023-05-05T18:15:35.487Z,99184.22
2023-05-05T18:18:01.916Z,99203.94
2023-05-05T18:20:28.236Z,99198.50
2023-05-05T18:22:54.614Z,99197.63
2023-05-05T18:25:21.034Z,99201.28
2023-05-05T18:27:47.355Z,99194.03
2023-05-05T18:30:13.882Z,99187.59
2023-05-05T18:32:40.216Z,99189.00
2023-05-05T18:35:07.439Z,99193.63
2023-05-05T18:37:34.174Z,99188.00
2023-05-05T18:40:00.472Z,99205.59
2023-05-05T18:42:26.771Z,99190.22
2023-05-05T18:44:53.234Z,99195.09
2023-05-05T18:47:19.521Z,99192.66
2023-05-05T18:49:46.390Z,99194.00
2023-05-05T18:52:13.049Z,99213.56
2023-05-05T18:54:39.342Z,99220.84
2023-05-05T18:57:05.689Z,99212.56
2023-05-05T18:59:32.047Z,99216.34
2023-05-05T19:01:58.417Z,99204.88
2023-05-05T19:04:31.365Z,99213.97
2023-05-05T19:06:58.841Z,99223.78
2023-05-05T19:09:25.179Z,99220.13
2023-05-05T19:11:51.474Z,99208.81
2023-05-05T19:14:18.126Z,99210.47
2023-05-05T19:16:44.656Z,99229.91
2023-05-05T19:19:11.226Z,99234.38
2023-05-05T19:21:37.553Z,99241.22
2023-05-05T19:24:04.163Z,99251.25
2023-05-05T19:26:30.589Z,99240.34
2023-05-05T19:28:56.934Z,99229.56
2023-05-05T19:31:23.383Z,99234.16
2023-05-05T19:33:49.707Z,99238.06
2023-05-05T19:36:16.072Z,99249.69
2023-05-05T19:38:42.472Z,99243.09
2023-05-05T19:41:08.801Z,99239.16
2023-05-05T19:43:35.126Z,99240.97
2023-05-05T19:46:01.715Z,99251.47
2023-05-05T19:48:28.207Z,99241.78
2023-05-05T19:50:54.690Z,99233.00
2023-05-05T19:53:20.989Z,99246.25
2023-05-05T19:55:47.373Z,99228.91
2023-05-05T19:58:13.751Z,99238.50
2023-05-05T20:00:40.213Z,99243.28
2023-05-05T20:03:06.678Z,99239.94
2023-05-05T20:05:33.124Z,99242.59
2023-05-05T20:07:59.620Z,99236.84
2023-05-05T20:10:26.025Z,99233.75
2023-05-05T20:12:52.350Z,99236.53
2023-05-05T20:15:20.150Z,99244.81
2023-05-05T20:17:47.822Z,99243.66
2023-05-05T20:20:20.240Z,99247.88
2023-05-05T20:22:47.979Z,99226.31
2023-05-05T20:25:15.056Z,99245.63
2023-05-05T20:27:42.074Z,99241.13
2023-05-05T20:30:11.878Z,99233.56
2023-05-05T20:32:38.478Z,99227.13
2023-05-05T20:35:05.353Z,99216.88
2023-05-05T20:37:31.704Z,99228.31
2023-05-05T20:39:58.069Z,99229.31
2023-05-05T20:42:24.563Z,99219.34
2023-05-05T20:44:51.315Z,99229.69
2023-05-05T20:47:17.706Z,99226.59
2023-05-05T20:49:44.103Z,99223.09
2023-05-05T20:52:10.404Z,99210.50
2023-05-05T20:54:36.843Z,99207.28
2023-05-05T20:57:03.221Z,99224.31
2023-05-05T20:59:29.574Z,99223.75
2023-05-05T21:01:59.344Z,99220.53
2023-05-05T21:04:25.810Z,99230.16
2023-05-05T21:06:52.212Z,99246.78
2023-05-05T21:09:18.606Z,99227.31
2023-05-05T21:11:44.927Z,99237.13
2023-05-05T21:14:11.323Z,99222.72
2023-05-05T21:16:38.057Z,99224.00
2023-05-05T21:19:04.644Z,99228.50
2023-05-05T21:21:31.008Z,99237.84
2023-05-05T21:23:57.662Z,99243.75
2023-05-05T21:26:24.810Z,99247.22
2023-05-05T21:28:51.858Z,99242.00
2023-05-05T21:31:22.268Z,99234.06
2023-05-05T21:33:49.034Z,99235.00
2023-05-05T21:36:15.352Z,99243.66
2023-05-05T21:38:41.880Z,99244.00
2023-05-05T21:41:08.179Z,99249.31
2023-05-05T21:43:34.679Z,99260.56
2023-05-05T21:46:03.558Z,99244.06
2023-05-05T21:48:29.937Z,99236.75
2023-05-05T21:50:56.368Z,99241.22
2023-05-05T21:53:23.704Z,99250.47
2023-05-05T21:55:50.373Z,99252.25
2023-05-05T21:58:17.040Z,99251.56
2023-05-05T22:00:43.425Z,99252.78
2023-05-05T22:03:10.180Z,99248.81
2023-05-05T22:05:36.517Z,99249.44
2023-05-05T22:08:03.086Z,99233.53
2023-05-05T22:10:29.617Z,99246.97
2023-05-05T22:12:56.151Z,99250.50
2023-05-05T22:15:22.750Z,99243.44
2023-05-05T22:17:49.190Z,99248.34
2023-05-05T22:20:15.828Z,99253.78
2023-05-05T22:22:42.217Z,99259.31
2023-05-05T22:25:09.412Z,99243.59
2023-05-05T22:27:36.148Z,99255.63
2023-05-05T22:30:02.515Z,99250.13
2023-05-05T22:32:29.061Z,99253.13
2023-05-05T22:34:55.500Z,99268.28
2023-05-05T22:37:22.103Z,99265.00
2023-05-05T22:39:48.393Z,99267.03
2023-05-05T22:42:14.898Z,99268.00
2023-05-05T22:44:41.201Z,99255.09
2023-05-05T22:47:07.838Z,99249.97
2023-05-05T22:49:34.285Z,99236.69
2023-05-05T22:52:00.619Z,99242.22
2023-05-05T22:54:26.948Z,99237.41
2023-05-05T22:56:53.455Z,99239.25
2023-05-05T22:59:19.787Z,99228.69
2023-05-05T23:01:46.169Z,99229.50
2023-05-05T23:04:12.642Z,99239.75
2023-05-05T23:06:39.104Z,99230.84
2023-05-05T23:09:05.507Z,99243.09
2023-05-05T23:11:31.845Z,99242.75
2023-05-05T23:13:58.340Z,99231.22
2023-05-05T23:16:24.914Z,99238.78
2023-05-05T23:18:51.314Z,99239.91
2023-05-05T23:21:17.716Z,99231.69
2023-05-05T23:23:44.016Z,99240.13
2023-05-05T23:26:10.442Z,99237.00
2023-05-05T23:28:36.818Z,99239.88
2023-05-05T23:31:03.269Z,99246.16
2023-05-05T23:33:29.584Z,99249.75
2023-05-05T23:35:56.036Z,99247.22
2023-05-05T23:38:22.402Z,99232.53
2023-05-05T23:40:49.140Z,99242.63
2023-05-05T23:43:15.507Z,99237.34
2023-05-05T23:45:41.874Z,99236.41
2023-05-05T23:48:08.637Z,99241.31
2023-05-05T23:50:35.062Z,99241.09
2023-05-05T23:53:01.358Z,99241.81
2023-05-05T23:55:27.791Z,99235.19
2023-05-05T23:57:54.158Z,99235.56
